sensor_id;sensor_type;location;lat;lon;timestamp;temperature;humidity
1568;DHT22;777;47.156;8.326;2022-09-25T00:02:48;10.90;99.90
1568;DHT22;777;47.156;8.326;2022-09-25T00:05:16;10.90;99.90
1568;DHT22;777;47.156;8.326;2022-09-25T00:07:43;10.90;99.90
1568;DHT22;777;47.156;8.326;2022-09-25T00:10:10;10.90;99.90
1568;DHT22;777;47.156;8.326;2022-09-25T00:12:37;10.90;99.90
1568;DHT22;777;47.156;8.326;2022-09-25T00:15:05;10.90;99.90
1568;DHT22;777;47.156;8.326;2022-09-25T00:17:32;11.00;99.90
1568;DHT22;777;47.156;8.326;2022-09-25T00:20:01;11.10;99.90
1568;DHT22;777;47.156;8.326;2022-09-25T00:22:27;11.10;99.90
1568;DHT22;777;47.156;8.326;2022-09-25T00:24:55;11.10;99.90
1568;DHT22;777;47.156;8.326;2022-09-25T00:27:22;11.10;99.90
1568;DHT22;777;47.156;8.326;2022-09-25T00:29:50;11.10;99.90
1568;DHT22;777;47.156;8.326;2022-09-25T00:32:18;11.20;99.90
1568;DHT22;777;47.156;8.326;2022-09-25T00:34:45;11.20;99.90
1568;DHT22;777;47.156;8.326;2022-09-25T00:37:14;11.20;99.90
1568;DHT22;777;47.156;8.326;2022-09-25T00:39:41;11.10;99.90
1568;DHT22;777;47.156;8.326;2022-09-25T00:42:10;11.20;99.90
1568;DHT22;777;47.156;8.326;2022-09-25T00:44:54;11.20;99.90
1568;DHT22;777;47.156;8.326;2022-09-25T00:47:49;11.20;99.90
1568;DHT22;777;47.156;8.326;2022-09-25T00:50:26;11.20;99.90
1568;DHT22;777;47.156;8.326;2022-09-25T00:53:01;11.10;99.90
1568;DHT22;777;47.156;8.326;2022-09-25T00:55:30;11.10;99.90
1568;DHT22;777;47.156;8.326;2022-09-25T00:57:59;11.10;99.90
1568;DHT22;777;47.156;8.326;2022-09-25T01:00:29;11.10;99.90
1568;DHT22;777;47.156;8.326;2022-09-25T01:02:56;10.90;99.90
1568;DHT22;777;47.156;8.326;2022-09-25T01:05:27;10.90;99.90
1568;DHT22;777;47.156;8.326;2022-09-25T01:07:58;10.90;99.90
1568;DHT22;777;47.156;8.326;2022-09-25T01:10:26;10.90;99.90
1568;DHT22;777;47.156;8.326;2022-09-25T01:12:55;10.80;99.90
1568;DHT22;777;47.156;8.326;2022-09-25T01:15:28;10.80;99.90
1568;DHT22;777;47.156;8.326;2022-09-25T01:18:02;10.80;99.90
1568;DHT22;777;47.156;8.326;2022-09-25T01:20:58;10.80;99.90
1568;DHT22;777;47.156;8.326;2022-09-25T01:26:44;10.80;99.90
1568;DHT22;777;47.156;8.326;2022-09-25T01:29:17;10.80;99.90
1568;DHT22;777;47.156;8.326;2022-09-25T01:31:49;10.80;99.90
1568;DHT22;777;47.156;8.326;2022-09-25T01:34:23;10.80;99.90
1568;DHT22;777;47.156;8.326;2022-09-25T01:36:57;10.80;99.90
1568;DHT22;777;47.156;8.326;2022-09-25T01:39:30;10.80;99.90
1568;DHT22;777;47.156;8.326;2022-09-25T01:42:04;10.80;99.90
1568;DHT22;777;47.156;8.326;2022-09-25T01:44:36;10.80;99.90
1568;DHT22;777;47.156;8.326;2022-09-25T01:47:08;10.70;99.90
1568;DHT22;777;47.156;8.326;2022-09-25T01:49:40;10.70;99.90
1568;DHT22;777;47.156;8.326;2022-09-25T01:52:13;10.70;99.90
1568;DHT22;777;47.156;8.326;2022-09-25T01:54:44;10.70;99.90
1568;DHT22;777;47.156;8.326;2022-09-25T01:57:16;10.80;99.90
1568;DHT22;777;47.156;8.326;2022-09-25T01:59:51;10.80;99.90
1568;DHT22;777;47.156;8.326;2022-09-25T02:02:24;10.80;99.90
1568;DHT22;777;47.156;8.326;2022-09-25T02:04:54;10.80;99.90
1568;DHT22;777;47.156;8.326;2022-09-25T02:07:27;10.90;99.90
1568;DHT22;777;47.156;8.326;2022-09-25T02:09:57;10.90;99.90
1568;DHT22;777;47.156;8.326;2022-09-25T02:12:33;10.90;99.90
1568;DHT22;777;47.156;8.326;2022-09-25T02:15:07;11.00;99.90
1568;DHT22;777;47.156;8.326;2022-09-25T02:17:37;11.10;99.90
1568;DHT22;777;47.156;8.326;2022-09-25T02:20:28;11.20;99.90
1568;DHT22;777;47.156;8.326;2022-09-25T02:23:05;11.20;99.90
1568;DHT22;777;47.156;8.326;2022-09-25T02:25:37;11.20;99.90
1568;DHT22;777;47.156;8.326;2022-09-25T02:28:06;11.10;99.90
1568;DHT22;777;47.156;8.326;2022-09-25T02:30:35;11.10;99.90
1568;DHT22;777;47.156;8.326;2022-09-25T02:33:02;11.10;99.90
1568;DHT22;777;47.156;8.326;2022-09-25T02:35:29;11.10;99.90
1568;DHT22;777;47.156;8.326;2022-09-25T02:37:58;11.10;99.90
1568;DHT22;777;47.156;8.326;2022-09-25T02:40:31;11.10;99.90
1568;DHT22;777;47.156;8.326;2022-09-25T02:43:06;11.10;99.90
1568;DHT22;777;47.156;8.326;2022-09-25T02:45:43;11.00;99.90
1568;DHT22;777;47.156;8.326;2022-09-25T02:48:24;11.00;99.90
1568;DHT22;777;47.156;8.326;2022-09-25T02:50:58;10.90;99.90
1568;DHT22;777;47.156;8.326;2022-09-25T02:53:34;10.90;99.90
1568;DHT22;777;47.156;8.326;2022-09-25T02:56:04;10.90;99.90
1568;DHT22;777;47.156;8.326;2022-09-25T02:58:36;10.80;99.90
1568;DHT22;777;47.156;8.326;2022-09-25T03:01:09;10.90;99.90
1568;DHT22;777;47.156;8.326;2022-09-25T03:03:39;10.90;99.90
1568;DHT22;777;47.156;8.326;2022-09-25T03:06:07;10.90;99.90
1568;DHT22;777;47.156;8.326;2022-09-25T03:08:38;10.90;99.90
1568;DHT22;777;47.156;8.326;2022-09-25T03:11:09;10.90;99.90
1568;DHT22;777;47.156;8.326;2022-09-25T03:13:37;10.90;99.90
1568;DHT22;777;47.156;8.326;2022-09-25T03:16:09;10.80;99.90
1568;DHT22;777;47.156;8.326;2022-09-25T03:18:38;10.80;99.90
1568;DHT22;777;47.156;8.326;2022-09-25T03:21:05;10.80;99.90
1568;DHT22;777;47.156;8.326;2022-09-25T03:23:32;10.80;99.90
1568;DHT22;777;47.156;8.326;2022-09-25T03:26:00;10.80;99.90
1568;DHT22;777;47.156;8.326;2022-09-25T03:28:29;10.80;99.90
1568;DHT22;777;47.156;8.326;2022-09-25T03:30:58;10.80;99.90
1568;DHT22;777;47.156;8.326;2022-09-25T03:33:28;10.80;99.90
1568;DHT22;777;47.156;8.326;2022-09-25T03:36:00;10.90;99.90
1568;DHT22;777;47.156;8.326;2022-09-25T03:38:27;10.90;99.90
1568;DHT22;777;47.156;8.326;2022-09-25T03:40:54;10.90;99.90
1568;DHT22;777;47.156;8.326;2022-09-25T03:43:22;10.90;99.90
1568;DHT22;777;47.156;8.326;2022-09-25T03:45:49;10.90;99.90
1568;DHT22;777;47.156;8.326;2022-09-25T03:48:16;10.90;99.90
1568;DHT22;777;47.156;8.326;2022-09-25T03:50:45;10.90;99.90
1568;DHT22;777;47.156;8.326;2022-09-25T03:53:14;10.90;99.90
1568;DHT22;777;47.156;8.326;2022-09-25T03:55:43;10.90;99.90
1568;DHT22;777;47.156;8.326;2022-09-25T03:58:14;11.00;99.90
1568;DHT22;777;47.156;8.326;2022-09-25T04:00:41;11.00;99.90
1568;DHT22;777;47.156;8.326;2022-09-25T04:03:09;11.00;99.90
1568;DHT22;777;47.156;8.326;2022-09-25T04:05:36;11.00;99.90
1568;DHT22;777;47.156;8.326;2022-09-25T04:08:05;11.00;99.90
1568;DHT22;777;47.156;8.326;2022-09-25T04:10:32;11.00;99.90
1568;DHT22;777;47.156;8.326;2022-09-25T04:13:04;11.00;99.90
1568;DHT22;777;47.156;8.326;2022-09-25T04:15:31;11.00;99.90
1568;DHT22;777;47.156;8.326;2022-09-25T04:17:58;11.00;99.90
1568;DHT22;777;47.156;8.326;2022-09-25T04:20:25;11.10;99.90
1568;DHT22;777;47.156;8.326;2022-09-25T04:22:53;11.10;99.90
1568;DHT22;777;47.156;8.326;2022-09-25T04:25:21;11.10;99.90
1568;DHT22;777;47.156;8.326;2022-09-25T04:27:50;11.00;99.90
1568;DHT22;777;47.156;8.326;2022-09-25T04:30:19;11.00;99.90
1568;DHT22;777;47.156;8.326;2022-09-25T04:32:46;11.00;99.90
1568;DHT22;777;47.156;8.326;2022-09-25T04:35:30;11.00;99.90
1568;DHT22;777;47.156;8.326;2022-09-25T04:37:57;11.00;99.90
1568;DHT22;777;47.156;8.326;2022-09-25T04:40:26;10.90;99.90
1568;DHT22;777;47.156;8.326;2022-09-25T04:42:57;10.90;99.90
1568;DHT22;777;47.156;8.326;2022-09-25T04:45:25;11.00;99.90
1568;DHT22;777;47.156;8.326;2022-09-25T04:47:52;11.00;99.90
1568;DHT22;777;47.156;8.326;2022-09-25T04:50:19;11.00;99.90
1568;DHT22;777;47.156;8.326;2022-09-25T04:52:47;11.00;99.90
1568;DHT22;777;47.156;8.326;2022-09-25T04:55:14;11.00;99.90
1568;DHT22;777;47.156;8.326;2022-09-25T04:57:43;11.10;99.90
1568;DHT22;777;47.156;8.326;2022-09-25T05:00:12;11.10;99.90
1568;DHT22;777;47.156;8.326;2022-09-25T05:02:44;11.10;99.90
1568;DHT22;777;47.156;8.326;2022-09-25T05:05:11;11.20;99.90
1568;DHT22;777;47.156;8.326;2022-09-25T05:07:38;11.10;99.90
1568;DHT22;777;47.156;8.326;2022-09-25T05:10:07;11.20;99.90
1568;DHT22;777;47.156;8.326;2022-09-25T05:12:34;11.20;99.90
1568;DHT22;777;47.156;8.326;2022-09-25T05:15:04;11.20;99.90
1568;DHT22;777;47.156;8.326;2022-09-25T05:17:31;11.20;99.90
1568;DHT22;777;47.156;8.326;2022-09-25T05:19:58;11.20;99.90
1568;DHT22;777;47.156;8.326;2022-09-25T05:22:25;11.20;99.90
1568;DHT22;777;47.156;8.326;2022-09-25T05:24:52;11.30;99.90
1568;DHT22;777;47.156;8.326;2022-09-25T05:27:19;11.30;99.90
1568;DHT22;777;47.156;8.326;2022-09-25T05:29:48;11.30;99.90
1568;DHT22;777;47.156;8.326;2022-09-25T05:32:16;11.30;99.90
1568;DHT22;777;47.156;8.326;2022-09-25T05:34:43;11.20;99.90
1568;DHT22;777;47.156;8.326;2022-09-25T05:37:10;11.20;99.90
1568;DHT22;777;47.156;8.326;2022-09-25T05:39:37;11.20;99.90
1568;DHT22;777;47.156;8.326;2022-09-25T05:42:05;11.20;99.90
1568;DHT22;777;47.156;8.326;2022-09-25T05:44:31;11.30;99.90
1568;DHT22;777;47.156;8.326;2022-09-25T05:46:58;11.20;99.90
1568;DHT22;777;47.156;8.326;2022-09-25T05:49:27;11.20;99.90
1568;DHT22;777;47.156;8.326;2022-09-25T05:51:54;11.10;99.90
1568;DHT22;777;47.156;8.326;2022-09-25T05:54:21;11.10;99.90
1568;DHT22;777;47.156;8.326;2022-09-25T05:56:48;11.10;99.90
1568;DHT22;777;47.156;8.326;2022-09-25T05:59:15;11.10;99.90
1568;DHT22;777;47.156;8.326;2022-09-25T06:01:43;11.10;99.90
1568;DHT22;777;47.156;8.326;2022-09-25T06:04:10;11.10;99.90
1568;DHT22;777;47.156;8.326;2022-09-25T06:06:38;11.10;99.90
1568;DHT22;777;47.156;8.326;2022-09-25T06:09:05;11.10;99.90
1568;DHT22;777;47.156;8.326;2022-09-25T06:11:32;11.10;99.90
1568;DHT22;777;47.156;8.326;2022-09-25T06:13:59;11.20;99.90
1568;DHT22;777;47.156;8.326;2022-09-25T06:16:27;11.20;99.90
1568;DHT22;777;47.156;8.326;2022-09-25T06:18:54;11.30;99.90
1568;DHT22;777;47.156;8.326;2022-09-25T06:21:21;11.40;99.90
1568;DHT22;777;47.156;8.326;2022-09-25T06:23:49;11.40;99.90
1568;DHT22;777;47.156;8.326;2022-09-25T06:26:17;11.50;99.90
1568;DHT22;777;47.156;8.326;2022-09-25T06:28:44;11.50;99.90
1568;DHT22;777;47.156;8.326;2022-09-25T06:31:11;11.60;99.90
1568;DHT22;777;47.156;8.326;2022-09-25T06:33:38;11.60;99.90
1568;DHT22;777;47.156;8.326;2022-09-25T06:36:05;11.70;99.90
1568;DHT22;777;47.156;8.326;2022-09-25T06:38:32;11.60;99.90
1568;DHT22;777;47.156;8.326;2022-09-25T06:41:01;11.50;99.90
1568;DHT22;777;47.156;8.326;2022-09-25T06:43:28;11.40;99.90
1568;DHT22;777;47.156;8.326;2022-09-25T06:45:58;11.40;99.90
1568;DHT22;777;47.156;8.326;2022-09-25T06:48:27;11.40;99.90
1568;DHT22;777;47.156;8.326;2022-09-25T06:50:55;11.50;99.90
1568;DHT22;777;47.156;8.326;2022-09-25T06:53:24;11.60;99.90
1568;DHT22;777;47.156;8.326;2022-09-25T06:55:54;11.70;99.90
1568;DHT22;777;47.156;8.326;2022-09-25T06:58:23;11.70;99.90
1568;DHT22;777;47.156;8.326;2022-09-25T07:00:52;11.70;99.90
1568;DHT22;777;47.156;8.326;2022-09-25T07:03:20;11.80;99.90
1568;DHT22;777;47.156;8.326;2022-09-25T07:06:07;11.70;99.90
1568;DHT22;777;47.156;8.326;2022-09-25T07:08:35;11.90;99.90
1568;DHT22;777;47.156;8.326;2022-09-25T07:11:03;11.90;99.90
1568;DHT22;777;47.156;8.326;2022-09-25T07:13:33;11.90;99.90
1568;DHT22;777;47.156;8.326;2022-09-25T07:16:02;12.00;99.90
1568;DHT22;777;47.156;8.326;2022-09-25T07:18:29;12.10;99.90
1568;DHT22;777;47.156;8.326;2022-09-25T07:20:59;12.20;99.90
1568;DHT22;777;47.156;8.326;2022-09-25T07:23:27;12.30;99.90
1568;DHT22;777;47.156;8.326;2022-09-25T07:25:56;12.40;99.90
1568;DHT22;777;47.156;8.326;2022-09-25T07:28:23;12.50;99.90
1568;DHT22;777;47.156;8.326;2022-09-25T07:30:51;12.60;99.90
1568;DHT22;777;47.156;8.326;2022-09-25T07:33:19;12.60;99.90
1568;DHT22;777;47.156;8.326;2022-09-25T07:35:50;12.60;99.90
1568;DHT22;777;47.156;8.326;2022-09-25T07:38:17;12.50;99.90
1568;DHT22;777;47.156;8.326;2022-09-25T07:40:44;12.50;99.90
1568;DHT22;777;47.156;8.326;2022-09-25T07:43:11;12.30;99.90
1568;DHT22;777;47.156;8.326;2022-09-25T07:45:38;12.30;99.90
1568;DHT22;777;47.156;8.326;2022-09-25T07:48:08;12.20;99.90
1568;DHT22;777;47.156;8.326;2022-09-25T07:50:35;12.10;99.90
1568;DHT22;777;47.156;8.326;2022-09-25T07:53:02;12.00;99.90
1568;DHT22;777;47.156;8.326;2022-09-25T07:55:29;12.00;99.90
1568;DHT22;777;47.156;8.326;2022-09-25T07:57:56;12.00;99.90
1568;DHT22;777;47.156;8.326;2022-09-25T08:00:24;12.00;99.90
1568;DHT22;777;47.156;8.326;2022-09-25T08:02:54;12.10;99.90
1568;DHT22;777;47.156;8.326;2022-09-25T08:05:24;12.10;99.90
1568;DHT22;777;47.156;8.326;2022-09-25T08:07:51;12.00;99.90
1568;DHT22;777;47.156;8.326;2022-09-25T08:10:19;11.90;99.90
1568;DHT22;777;47.156;8.326;2022-09-25T08:12:46;11.90;99.90
1568;DHT22;777;47.156;8.326;2022-09-25T08:15:13;11.90;99.90
1568;DHT22;777;47.156;8.326;2022-09-25T08:17:41;11.80;99.90
1568;DHT22;777;47.156;8.326;2022-09-25T08:20:08;11.80;99.90
1568;DHT22;777;47.156;8.326;2022-09-25T08:22:37;11.80;99.90
1568;DHT22;777;47.156;8.326;2022-09-25T08:25:05;11.80;99.90
1568;DHT22;777;47.156;8.326;2022-09-25T08:27:34;11.70;99.90
1568;DHT22;777;47.156;8.326;2022-09-25T08:30:07;11.70;99.90
1568;DHT22;777;47.156;8.326;2022-09-25T08:32:34;11.70;99.90
1568;DHT22;777;47.156;8.326;2022-09-25T08:35:02;11.70;99.90
1568;DHT22;777;47.156;8.326;2022-09-25T08:37:29;11.70;99.90
1568;DHT22;777;47.156;8.326;2022-09-25T08:39:58;11.80;99.90
1568;DHT22;777;47.156;8.326;2022-09-25T08:42:28;11.80;99.90
1568;DHT22;777;47.156;8.326;2022-09-25T08:45:00;11.80;99.90
1568;DHT22;777;47.156;8.326;2022-09-25T08:47:46;11.80;99.90
1568;DHT22;777;47.156;8.326;2022-09-25T08:50:31;11.90;99.90
1568;DHT22;777;47.156;8.326;2022-09-25T08:53:04;12.00;99.90
1568;DHT22;777;47.156;8.326;2022-09-25T08:55:35;12.00;99.90
1568;DHT22;777;47.156;8.326;2022-09-25T08:58:23;12.00;99.90
1568;DHT22;777;47.156;8.326;2022-09-25T09:00:52;12.00;99.90
1568;DHT22;777;47.156;8.326;2022-09-25T09:03:21;12.10;99.90
1568;DHT22;777;47.156;8.326;2022-09-25T09:05:54;12.10;99.90
1568;DHT22;777;47.156;8.326;2022-09-25T09:08:24;12.10;99.90
1568;DHT22;777;47.156;8.326;2022-09-25T09:10:58;12.20;99.90
1568;DHT22;777;47.156;8.326;2022-09-25T09:13:29;12.20;99.90
1568;DHT22;777;47.156;8.326;2022-09-25T09:16:04;12.30;99.90
1568;DHT22;777;47.156;8.326;2022-09-25T09:18:36;12.40;99.90
1568;DHT22;777;47.156;8.326;2022-09-25T09:21:09;12.50;99.90
1568;DHT22;777;47.156;8.326;2022-09-25T09:23:43;12.50;99.90
1568;DHT22;777;47.156;8.326;2022-09-25T09:26:17;12.40;99.90
1568;DHT22;777;47.156;8.326;2022-09-25T09:29:00;12.40;99.90
1568;DHT22;777;47.156;8.326;2022-09-25T09:31:36;12.40;99.90
1568;DHT22;777;47.156;8.326;2022-09-25T09:34:33;12.30;99.90
1568;DHT22;777;47.156;8.326;2022-09-25T09:37:07;12.30;99.90
1568;DHT22;777;47.156;8.326;2022-09-25T09:39:47;12.30;99.90
1568;DHT22;777;47.156;8.326;2022-09-25T09:42:24;12.30;99.90
1568;DHT22;777;47.156;8.326;2022-09-25T09:44:57;12.40;99.90
1568;DHT22;777;47.156;8.326;2022-09-25T09:47:34;12.40;99.90
1568;DHT22;777;47.156;8.326;2022-09-25T09:50:19;12.50;99.90
1568;DHT22;777;47.156;8.326;2022-09-25T09:52:50;12.40;99.90
1568;DHT22;777;47.156;8.326;2022-09-25T09:55:22;12.40;99.90
1568;DHT22;777;47.156;8.326;2022-09-25T09:57:54;12.40;99.90
1568;DHT22;777;47.156;8.326;2022-09-25T10:00:23;12.50;99.90
1568;DHT22;777;47.156;8.326;2022-09-25T10:02:53;12.70;99.90
1568;DHT22;777;47.156;8.326;2022-09-25T10:05:24;12.80;99.90
1568;DHT22;777;47.156;8.326;2022-09-25T10:07:52;13.00;99.90
1568;DHT22;777;47.156;8.326;2022-09-25T10:10:29;13.20;99.90
1568;DHT22;777;47.156;8.326;2022-09-25T10:13:01;13.30;99.90
1568;DHT22;777;47.156;8.326;2022-09-25T10:15:34;13.60;99.90
1568;DHT22;777;47.156;8.326;2022-09-25T10:18:03;13.70;99.90
1568;DHT22;777;47.156;8.326;2022-09-25T10:20:38;13.80;99.90
1568;DHT22;777;47.156;8.326;2022-09-25T10:23:15;14.10;99.90
1568;DHT22;777;47.156;8.326;2022-09-25T10:25:45;14.40;99.90
1568;DHT22;777;47.156;8.326;2022-09-25T10:28:26;14.50;99.90
1568;DHT22;777;47.156;8.326;2022-09-25T10:30:54;14.70;99.90
1568;DHT22;777;47.156;8.326;2022-09-25T10:33:24;15.10;99.90
1568;DHT22;777;47.156;8.326;2022-09-25T10:35:51;15.10;99.90
1568;DHT22;777;47.156;8.326;2022-09-25T10:38:35;15.00;99.90
1568;DHT22;777;47.156;8.326;2022-09-25T10:41:05;15.10;99.90
1568;DHT22;777;47.156;8.326;2022-09-25T10:43:35;15.10;99.90
1568;DHT22;777;47.156;8.326;2022-09-25T10:46:15;14.90;99.90
1568;DHT22;777;47.156;8.326;2022-09-25T10:49:14;14.90;99.90
1568;DHT22;777;47.156;8.326;2022-09-25T10:52:01;14.80;99.90
1568;DHT22;777;47.156;8.326;2022-09-25T10:54:30;14.70;99.90
1568;DHT22;777;47.156;8.326;2022-09-25T10:56:57;14.70;99.90
1568;DHT22;777;47.156;8.326;2022-09-25T10:59:27;14.60;99.90
1568;DHT22;777;47.156;8.326;2022-09-25T11:01:54;14.50;99.90
1568;DHT22;777;47.156;8.326;2022-09-25T11:04:24;14.60;99.90
1568;DHT22;777;47.156;8.326;2022-09-25T11:06:55;14.60;99.90
1568;DHT22;777;47.156;8.326;2022-09-25T11:09:24;14.60;99.90
1568;DHT22;777;47.156;8.326;2022-09-25T11:12:02;14.50;99.90
1568;DHT22;777;47.156;8.326;2022-09-25T11:14:34;14.50;99.90
1568;DHT22;777;47.156;8.326;2022-09-25T11:17:03;14.50;99.90
1568;DHT22;777;47.156;8.326;2022-09-25T11:19:32;14.50;99.90
1568;DHT22;777;47.156;8.326;2022-09-25T11:22:09;14.50;99.90
1568;DHT22;777;47.156;8.326;2022-09-25T11:24:46;14.70;99.90
1568;DHT22;777;47.156;8.326;2022-09-25T11:27:18;14.80;99.90
1568;DHT22;777;47.156;8.326;2022-09-25T11:29:56;14.80;99.90
1568;DHT22;777;47.156;8.326;2022-09-25T11:32:31;14.90;99.90
1568;DHT22;777;47.156;8.326;2022-09-25T11:35:26;14.80;99.90
1568;DHT22;777;47.156;8.326;2022-09-25T11:38:01;14.70;99.90
1568;DHT22;777;47.156;8.326;2022-09-25T11:40:36;14.70;99.90
1568;DHT22;777;47.156;8.326;2022-09-25T11:43:36;14.70;99.90
1568;DHT22;777;47.156;8.326;2022-09-25T11:46:17;14.60;99.90
1568;DHT22;777;47.156;8.326;2022-09-25T11:48:54;14.30;99.90
1568;DHT22;777;47.156;8.326;2022-09-25T11:51:30;14.10;99.90
1568;DHT22;777;47.156;8.326;2022-09-25T11:54:07;14.10;99.90
1568;DHT22;777;47.156;8.326;2022-09-25T11:56:42;14.10;99.90
1568;DHT22;777;47.156;8.326;2022-09-25T11:59:23;14.00;99.90
1568;DHT22;777;47.156;8.326;2022-09-25T12:02:02;13.90;99.90
1568;DHT22;777;47.156;8.326;2022-09-25T12:04:49;13.90;99.90
1568;DHT22;777;47.156;8.326;2022-09-25T12:07:31;14.00;99.90
1568;DHT22;777;47.156;8.326;2022-09-25T12:10:23;14.10;99.90
1568;DHT22;777;47.156;8.326;2022-09-25T12:12:57;14.40;99.90
1568;DHT22;777;47.156;8.326;2022-09-25T12:15:46;14.60;99.90
1568;DHT22;777;47.156;8.326;2022-09-25T12:18:25;14.90;99.90
1568;DHT22;777;47.156;8.326;2022-09-25T12:20:58;14.90;99.90
1568;DHT22;777;47.156;8.326;2022-09-25T12:23:30;15.00;99.90
1568;DHT22;777;47.156;8.326;2022-09-25T12:26:13;15.00;99.90
1568;DHT22;777;47.156;8.326;2022-09-25T12:28:55;14.90;99.90
1568;DHT22;777;47.156;8.326;2022-09-25T12:31:30;14.80;99.90
1568;DHT22;777;47.156;8.326;2022-09-25T12:34:08;14.70;99.90
1568;DHT22;777;47.156;8.326;2022-09-25T12:36:43;14.60;99.90
1568;DHT22;777;47.156;8.326;2022-09-25T12:39:24;14.50;99.90
1568;DHT22;777;47.156;8.326;2022-09-25T12:41:54;14.40;99.90
1568;DHT22;777;47.156;8.326;2022-09-25T12:44:35;14.50;99.90
1568;DHT22;777;47.156;8.326;2022-09-25T12:47:08;14.70;99.90
1568;DHT22;777;47.156;8.326;2022-09-25T12:49:43;15.00;99.90
1568;DHT22;777;47.156;8.326;2022-09-25T12:52:16;15.20;99.90
1568;DHT22;777;47.156;8.326;2022-09-25T12:54:51;15.40;99.90
1568;DHT22;777;47.156;8.326;2022-09-25T12:57:22;15.50;99.90
1568;DHT22;777;47.156;8.326;2022-09-25T12:59:55;15.50;99.90
1568;DHT22;777;47.156;8.326;2022-09-25T13:02:28;15.60;99.90
1568;DHT22;777;47.156;8.326;2022-09-25T13:05:05;15.50;99.90
1568;DHT22;777;47.156;8.326;2022-09-25T13:07:38;15.70;99.90
1568;DHT22;777;47.156;8.326;2022-09-25T13:10:15;15.80;99.90
1568;DHT22;777;47.156;8.326;2022-09-25T13:12:44;15.70;99.90
1568;DHT22;777;47.156;8.326;2022-09-25T13:15:16;15.60;99.90
1568;DHT22;777;47.156;8.326;2022-09-25T13:17:44;15.50;99.90
1568;DHT22;777;47.156;8.326;2022-09-25T13:20:44;15.40;99.90
1568;DHT22;777;47.156;8.326;2022-09-25T13:23:15;15.40;99.90
1568;DHT22;777;47.156;8.326;2022-09-25T13:25:44;15.30;99.90
1568;DHT22;777;47.156;8.326;2022-09-25T13:28:18;15.30;99.90
1568;DHT22;777;47.156;8.326;2022-09-25T13:31:01;15.40;99.90
1568;DHT22;777;47.156;8.326;2022-09-25T13:33:33;15.70;99.90
1568;DHT22;777;47.156;8.326;2022-09-25T13:36:11;15.80;99.90
1568;DHT22;777;47.156;8.326;2022-09-25T13:38:44;15.90;99.90
1568;DHT22;777;47.156;8.326;2022-09-25T13:41:29;16.10;99.90
1568;DHT22;777;47.156;8.326;2022-09-25T13:50:26;16.20;99.90
1568;DHT22;777;47.156;8.326;2022-09-25T13:53:13;16.20;99.90
1568;DHT22;777;47.156;8.326;2022-09-25T14:01:55;16.40;99.90
1568;DHT22;777;47.156;8.326;2022-09-25T14:04:28;16.20;99.90
1568;DHT22;777;47.156;8.326;2022-09-25T14:07:04;16.10;99.90
1568;DHT22;777;47.156;8.326;2022-09-25T14:09:33;16.10;99.90
1568;DHT22;777;47.156;8.326;2022-09-25T14:12:06;16.10;99.90
1568;DHT22;777;47.156;8.326;2022-09-25T14:14:40;16.00;99.90
1568;DHT22;777;47.156;8.326;2022-09-25T14:17:13;16.10;99.90
1568;DHT22;777;47.156;8.326;2022-09-25T14:19:46;16.10;99.90
1568;DHT22;777;47.156;8.326;2022-09-25T14:22:19;16.00;99.90
1568;DHT22;777;47.156;8.326;2022-09-25T14:24:50;15.70;99.90
1568;DHT22;777;47.156;8.326;2022-09-25T14:27:21;15.40;99.90
1568;DHT22;777;47.156;8.326;2022-09-25T14:29:49;15.10;99.90
1568;DHT22;777;47.156;8.326;2022-09-25T14:32:26;14.90;99.90
1568;DHT22;777;47.156;8.326;2022-09-25T14:35:09;14.70;99.90
1568;DHT22;777;47.156;8.326;2022-09-25T14:37:51;14.70;99.90
1568;DHT22;777;47.156;8.326;2022-09-25T14:40:27;14.70;99.90
1568;DHT22;777;47.156;8.326;2022-09-25T14:43:12;14.50;99.90
1568;DHT22;777;47.156;8.326;2022-09-25T14:46:05;14.40;99.90
1568;DHT22;777;47.156;8.326;2022-09-25T14:48:37;14.30;99.90
1568;DHT22;777;47.156;8.326;2022-09-25T14:51:08;14.20;99.90
1568;DHT22;777;47.156;8.326;2022-09-25T14:53:38;14.30;99.90
1568;DHT22;777;47.156;8.326;2022-09-25T14:56:09;14.30;99.90
1568;DHT22;777;47.156;8.326;2022-09-25T14:58:43;14.30;99.90
1568;DHT22;777;47.156;8.326;2022-09-25T15:01:15;14.40;99.90
1568;DHT22;777;47.156;8.326;2022-09-25T15:03:46;14.40;99.90
1568;DHT22;777;47.156;8.326;2022-09-25T15:06:26;14.50;99.90
1568;DHT22;777;47.156;8.326;2022-09-25T15:08:54;14.60;99.90
1568;DHT22;777;47.156;8.326;2022-09-25T15:11:25;14.70;99.90
1568;DHT22;777;47.156;8.326;2022-09-25T15:14:07;14.70;99.90
1568;DHT22;777;47.156;8.326;2022-09-25T15:16:36;14.80;99.90
1568;DHT22;777;47.156;8.326;2022-09-25T15:19:24;14.80;99.90
1568;DHT22;777;47.156;8.326;2022-09-25T15:21:52;14.80;99.90
1568;DHT22;777;47.156;8.326;2022-09-25T15:24:22;14.80;99.90
1568;DHT22;777;47.156;8.326;2022-09-25T15:26:57;14.90;99.90
1568;DHT22;777;47.156;8.326;2022-09-25T15:29:29;14.90;99.90
1568;DHT22;777;47.156;8.326;2022-09-25T15:31:58;14.90;99.90
1568;DHT22;777;47.156;8.326;2022-09-25T15:34:26;14.90;99.90
1568;DHT22;777;47.156;8.326;2022-09-25T15:37:07;14.90;99.90
1568;DHT22;777;47.156;8.326;2022-09-25T15:39:41;14.90;99.90
1568;DHT22;777;47.156;8.326;2022-09-25T15:42:11;14.90;99.90
1568;DHT22;777;47.156;8.326;2022-09-25T15:44:38;14.90;99.90
1568;DHT22;777;47.156;8.326;2022-09-25T15:47:05;14.90;99.90
1568;DHT22;777;47.156;8.326;2022-09-25T15:49:53;14.50;99.90
1568;DHT22;777;47.156;8.326;2022-09-25T15:52:22;14.30;99.90
1568;DHT22;777;47.156;8.326;2022-09-25T15:54:52;14.30;99.90
1568;DHT22;777;47.156;8.326;2022-09-25T15:57:28;14.40;99.90
1568;DHT22;777;47.156;8.326;2022-09-25T15:59:56;14.40;99.90
1568;DHT22;777;47.156;8.326;2022-09-25T16:02:48;14.40;99.90
1568;DHT22;777;47.156;8.326;2022-09-25T16:05:45;14.50;99.90
1568;DHT22;777;47.156;8.326;2022-09-25T16:08:24;14.50;99.90
1568;DHT22;777;47.156;8.326;2022-09-25T16:11:04;14.50;99.90
1568;DHT22;777;47.156;8.326;2022-09-25T16:13:33;14.40;99.90
1568;DHT22;777;47.156;8.326;2022-09-25T16:16:00;14.30;99.90
1568;DHT22;777;47.156;8.326;2022-09-25T16:18:36;14.10;99.90
1568;DHT22;777;47.156;8.326;2022-09-25T16:21:13;13.90;99.90
1568;DHT22;777;47.156;8.326;2022-09-25T16:23:41;13.70;99.90
1568;DHT22;777;47.156;8.326;2022-09-25T16:26:16;13.50;99.90
1568;DHT22;777;47.156;8.326;2022-09-25T16:28:56;13.50;99.90
1568;DHT22;777;47.156;8.326;2022-09-25T16:31:25;13.40;99.90
1568;DHT22;777;47.156;8.326;2022-09-25T16:33:53;13.30;99.90
1568;DHT22;777;47.156;8.326;2022-09-25T16:36:23;13.20;99.90
1568;DHT22;777;47.156;8.326;2022-09-25T16:39:12;13.20;99.90
1568;DHT22;777;47.156;8.326;2022-09-25T16:41:44;13.20;99.90
1568;DHT22;777;47.156;8.326;2022-09-25T16:44:16;13.10;99.90
1568;DHT22;777;47.156;8.326;2022-09-25T16:46:46;13.10;99.90
1568;DHT22;777;47.156;8.326;2022-09-25T16:49:31;13.10;99.90
1568;DHT22;777;47.156;8.326;2022-09-25T16:51:59;13.00;99.90
1568;DHT22;777;47.156;8.326;2022-09-25T16:54:30;13.00;99.90
1568;DHT22;777;47.156;8.326;2022-09-25T16:56:58;12.90;99.90
1568;DHT22;777;47.156;8.326;2022-09-25T16:59:29;12.90;99.90
1568;DHT22;777;47.156;8.326;2022-09-25T17:01:57;12.80;99.90
1568;DHT22;777;47.156;8.326;2022-09-25T17:04:27;12.70;99.90
1568;DHT22;777;47.156;8.326;2022-09-25T17:06:56;12.70;99.90